createdAt,value
2018-08-04T00:01:48.760Z,99.90
2018-08-04T00:04:17.330Z,99.90
2018-08-04T00:06:45.808Z,99.90
2018-08-04T00:09:14.298Z,99.90
2018-08-04T00:11:42.754Z,99.90
2018-08-04T00:14:11.987Z,99.90
2018-08-04T00:16:40.459Z,99.90
2018-08-04T00:19:09.543Z,99.90
2018-08-04T00:21:39.106Z,99.90
2018-08-04T00:24:07.555Z,99.90
2018-08-04T00:26:36.085Z,99.90
2018-08-04T00:29:04.632Z,99.90
2018-08-04T00:31:34.019Z,99.90
2018-08-04T00:34:02.555Z,99.90
2018-08-04T00:36:30.984Z,99.90
2018-08-04T00:38:59.454Z,99.90
2018-08-04T00:41:27.878Z,99.90
2018-08-04T00:43:56.328Z,99.90
2018-08-04T00:46:24.791Z,99.90
2018-08-04T00:48:53.233Z,99.90
2018-08-04T00:51:21.689Z,99.90
2018-08-04T00:53:50.145Z,99.90
2018-08-04T00:56:18.682Z,99.90
2018-08-04T00:58:47.140Z,99.90
2018-08-04T01:01:15.588Z,99.90
2018-08-04T01:03:44.160Z,99.90
2018-08-04T01:06:12.680Z,99.90
2018-08-04T01:08:41.219Z,99.90
2018-08-04T01:11:09.666Z,99.90
2018-08-04T01:13:38.095Z,99.90
2018-08-04T01:16:06.566Z,99.90
2018-08-04T01:18:34.982Z,99.90
2018-08-04T01:21:03.432Z,99.90
2018-08-04T01:23:31.878Z,99.90
2018-08-04T01:26:00.380Z,99.90
2018-08-04T01:28:28.828Z,99.90
2018-08-04T01:30:57.295Z,99.90
2018-08-04T01:33:25.723Z,99.90
2018-08-04T01:35:54.186Z,99.90
2018-08-04T01:38:22.615Z,99.90
2018-08-04T01:40:51.063Z,99.90
2018-08-04T01:43:19.551Z,99.90
2018-08-04T01:45:48.008Z,99.90
2018-08-04T01:48:16.513Z,99.90
2018-08-04T01:50:44.976Z,99.90
2018-08-04T01:53:13.408Z,99.90
2018-08-04T01:55:41.817Z,99.90
2018-08-04T01:58:10.257Z,99.90
2018-08-04T02:00:38.723Z,99.90
2018-08-04T02:03:07.398Z,99.90
2018-08-04T02:05:35.826Z,99.90
2018-08-04T02:10:32.387Z,99.90
2018-08-04T02:15:29.035Z,99.90
2018-08-04T02:17:57.487Z,99.90
2018-08-04T02:20:25.907Z,99.90
2018-08-04T02:22:54.350Z,99.90
2018-08-04T02:25:22.775Z,99.90
2018-08-04T02:27:51.221Z,99.90
2018-08-04T02:30:19.643Z,99.90
2018-08-04T02:32:48.100Z,99.90
2018-08-04T02:35:16.540Z,99.90
2018-08-04T02:37:45.047Z,99.90
2018-08-04T02:40:13.496Z,99.90
2018-08-04T02:42:41.938Z,99.90
2018-08-04T02:45:10.564Z,99.90
2018-08-04T02:47:38.989Z,99.90
2018-08-04T02:50:08.233Z,99.90
2018-08-04T02:52:36.771Z,99.90
2018-08-04T02:55:05.700Z,99.90
2018-08-04T02:57:34.136Z,99.90
2018-08-04T03:00:02.603Z,99.90
2018-08-04T03:02:31.064Z,99.90
2018-08-04T03:04:59.524Z,99.90
2018-08-04T03:07:27.948Z,99.90
2018-08-04T03:09:56.429Z,99.90
2018-08-04T03:12:24.864Z,99.90
2018-08-04T03:14:53.541Z,99.90
2018-08-04T03:17:22.050Z,99.90
2018-08-04T03:19:50.703Z,99.90
2018-08-04T03:22:19.139Z,99.90
2018-08-04T03:24:47.683Z,99.90
2018-08-04T03:27:16.125Z,99.90
2018-08-04T03:29:44.595Z,99.90
2018-08-04T03:32:13.059Z,99.90
2018-08-04T03:34:41.487Z,99.90
2018-08-04T03:37:09.926Z,99.90
2018-08-04T03:39:38.350Z,99.90
2018-08-04T03:42:06.833Z,99.90
2018-08-04T03:47:03.476Z,99.90
2018-08-04T03:52:00.060Z,99.90
2018-08-04T03:54:28.491Z,99.90
2018-08-04T03:56:57.052Z,99.90
2018-08-04T03:59:25.491Z,99.90
2018-08-04T04:01:53.979Z,99.90
2018-08-04T04:04:22.471Z,99.90
2018-08-04T04:06:50.950Z,99.90
2018-08-04T04:09:19.371Z,99.90
2018-08-04T04:11:47.810Z,99.90
2018-08-04T04:14:16.251Z,99.90
2018-08-04T04:16:44.695Z,99.90
2018-08-04T04:19:13.121Z,99.90
2018-08-04T04:21:41.592Z,99.90
2018-08-04T04:24:10.060Z,99.90
2018-08-04T04:26:38.684Z,99.90
2018-08-04T04:29:07.119Z,99.90
2018-08-04T04:31:35.533Z,99.90
2018-08-04T04:34:03.967Z,99.90
2018-08-04T04:36:32.399Z,99.90
2018-08-04T04:39:00.851Z,99.90
2018-08-04T04:41:29.279Z,99.90
2018-08-04T04:43:57.715Z,99.90
2018-08-04T04:46:26.144Z,99.90
2018-08-04T04:48:54.626Z,99.90
2018-08-04T04:51:23.180Z,99.90
2018-08-04T04:53:51.735Z,99.90
2018-08-04T04:56:20.152Z,99.90
2018-08-04T04:58:48.776Z,99.90
2018-08-04T05:01:17.195Z,99.90
2018-08-04T05:03:45.671Z,99.90
2018-08-04T05:06:14.195Z,99.90
2018-08-04T05:08:42.650Z,99.90
2018-08-04T05:11:11.192Z,99.90
2018-08-04T05:13:39.660Z,99.90
2018-08-04T05:16:08.091Z,99.90
2018-08-04T05:18:36.540Z,99.90
2018-08-04T05:21:04.982Z,99.90
2018-08-04T05:23:33.517Z,99.90
2018-08-04T05:26:02.011Z,99.90
2018-08-04T05:28:30.480Z,99.90
2018-08-04T05:30:58.918Z,99.90
2018-08-04T05:33:27.384Z,99.90
2018-08-04T05:35:55.867Z,99.90
2018-08-04T05:38:24.308Z,99.90
2018-08-04T05:40:52.743Z,99.90
2018-08-04T05:45:49.432Z,99.90
2018-08-04T05:48:17.912Z,99.90
2018-08-04T05:50:46.348Z,99.90
2018-08-04T05:53:14.819Z,99.90
2018-08-04T05:55:43.259Z,99.90
2018-08-04T05:58:11.706Z,99.90
2018-08-04T06:00:40.381Z,99.90
2018-08-04T06:03:08.851Z,99.90
2018-08-04T06:05:37.297Z,99.90
2018-08-04T06:08:05.744Z,99.90
2018-08-04T06:10:34.183Z,99.90
2018-08-04T06:13:02.632Z,99.90
2018-08-04T06:15:31.064Z,99.90
2018-08-04T06:17:59.527Z,99.90
2018-08-04T06:22:56.272Z,99.90
2018-08-04T06:25:24.819Z,99.90
2018-08-04T06:27:53.361Z,99.90
2018-08-04T06:30:21.915Z,99.90
2018-08-04T06:32:50.347Z,99.90
2018-08-04T06:35:18.872Z,99.90
2018-08-04T06:37:47.327Z,99.90
2018-08-04T06:40:15.931Z,99.90
2018-08-04T06:42:44.372Z,99.90
2018-08-04T06:45:12.827Z,99.90
2018-08-04T06:47:41.271Z,99.90
2018-08-04T06:50:16.370Z,99.90
2018-08-04T06:52:44.839Z,99.90
2018-08-04T06:55:13.291Z,99.90
2018-08-04T07:00:09.873Z,99.90
2018-08-04T07:02:38.351Z,99.90
2018-08-04T07:05:06.887Z,99.90
2018-08-04T07:07:35.303Z,99.90
2018-08-04T07:10:03.768Z,99.90
2018-08-04T07:12:32.314Z,99.90
2018-08-04T07:15:00.765Z,99.90
2018-08-04T07:17:29.183Z,99.90
2018-08-04T07:19:57.656Z,99.90
2018-08-04T07:22:26.107Z,99.90
2018-08-04T07:24:54.563Z,99.90
2018-08-04T07:27:23.018Z,99.90
2018-08-04T07:29:51.489Z,99.90
2018-08-04T07:32:20.051Z,99.90
2018-08-04T07:34:48.640Z,99.90
2018-08-04T07:37:17.212Z,99.90
2018-08-04T07:39:45.645Z,99.90
2018-08-04T07:42:14.107Z,99.90
2018-08-04T07:44:42.570Z,99.90
2018-08-04T07:47:11.024Z,99.90
2018-08-04T07:49:39.460Z,99.90
2018-08-04T07:52:07.972Z,99.90
2018-08-04T07:54:36.863Z,99.90
2018-08-04T07:57:05.636Z,99.90
2018-08-04T07:59:34.169Z,99.90
2018-08-04T08:02:02.683Z,99.90
2018-08-04T08:04:31.112Z,99.90
2018-08-04T08:06:59.610Z,99.90
2018-08-04T08:09:28.056Z,99.90
2018-08-04T08:11:56.521Z,99.90
2018-08-04T08:14:24.974Z,99.90
2018-08-04T08:16:53.403Z,99.90
2018-08-04T08:19:22.044Z,99.90
2018-08-04T08:21:50.419Z,99.90
2018-08-04T08:24:18.878Z,99.90
2018-08-04T08:26:47.306Z,99.90
2018-08-04T08:29:15.760Z,99.90
2018-08-04T08:31:44.196Z,99.90
2018-08-04T08:36:40.766Z,99.90
2018-08-04T08:39:09.642Z,99.90
2018-08-04T08:44:06.387Z,99.90
2018-08-04T08:46:34.844Z,99.90
2018-08-04T08:49:03.315Z,99.90
2018-08-04T08:51:31.854Z,99.90
2018-08-04T08:54:00.590Z,99.90
2018-08-04T08:56:29.142Z,99.90
2018-08-04T08:58:57.592Z,99.90
2018-08-04T09:01:26.136Z,99.90
2018-08-04T09:03:54.551Z,99.90
2018-08-04T09:06:23.110Z,99.90
2018-08-04T09:08:51.552Z,99.90
2018-08-04T09:11:20.035Z,99.90
2018-08-04T09:13:48.494Z,99.90
2018-08-04T09:16:16.955Z,99.90
2018-08-04T09:18:45.406Z,99.90
2018-08-04T09:21:14.727Z,99.90
2018-08-04T09:23:43.280Z,99.80
2018-08-04T09:26:11.855Z,99.90
2018-08-04T09:28:40.348Z,99.90
2018-08-04T09:36:05.962Z,98.20
2018-08-04T09:38:34.378Z,99.40
2018-08-04T09:43:31.095Z,99.90
2018-08-04T09:45:59.710Z,99.70
2018-08-04T09:50:56.384Z,97.70
2018-08-04T09:53:24.806Z,97.00
2018-08-04T09:55:53.275Z,95.40
2018-08-04T09:58:21.814Z,93.10
2018-08-04T10:00:55.463Z,93.00
2018-08-04T10:03:24.087Z,93.20
2018-08-04T10:05:52.545Z,93.30
2018-08-04T10:08:21.030Z,95.70
2018-08-04T10:10:49.579Z,94.80
2018-08-04T10:13:18.069Z,93.60
2018-08-04T10:15:46.492Z,94.20
2018-08-04T10:18:15.068Z,93.30
2018-08-04T10:20:43.575Z,93.20
2018-08-04T10:23:12.058Z,92.50
2018-08-04T10:25:40.519Z,92.40
2018-08-04T10:28:08.955Z,91.80
2018-08-04T10:30:37.531Z,91.20
2018-08-04T10:33:06.004Z,92.20
2018-08-04T10:35:34.423Z,90.70
2018-08-04T10:38:03.007Z,88.60
2018-08-04T10:40:31.425Z,85.60
2018-08-04T10:42:59.944Z,83.40
2018-08-04T10:45:28.423Z,85.10
2018-08-04T10:47:56.978Z,83.80
2018-08-04T10:50:25.696Z,84.10
2018-08-04T10:52:54.152Z,83.50
2018-08-04T10:55:22.605Z,80.50
2018-08-04T10:57:51.148Z,79.40
2018-08-04T11:00:19.610Z,85.30
2018-08-04T11:02:48.096Z,85.00
2018-08-04T11:05:16.631Z,85.00
2018-08-04T11:07:45.052Z,80.50
2018-08-04T11:10:13.517Z,77.50
2018-08-04T11:12:42.008Z,78.20
2018-08-04T11:15:10.467Z,73.80
2018-08-04T11:17:38.892Z,76.30
2018-08-04T11:22:35.680Z,67.60
2018-08-04T11:25:04.390Z,63.70
2018-08-04T11:27:32.836Z,66.50
2018-08-04T11:30:01.360Z,66.90
2018-08-04T11:32:29.818Z,71.40
2018-08-04T11:34:58.339Z,67.60
2018-08-04T11:37:26.827Z,63.10
2018-08-04T11:39:55.597Z,65.90
2018-08-04T11:42:24.051Z,62.30
2018-08-04T11:44:52.491Z,64.80
2018-08-04T11:49:49.136Z,62.60
2018-08-04T11:52:17.651Z,66.80
2018-08-04T11:54:46.059Z,61.20
2018-08-04T11:57:14.511Z,66.90
2018-08-04T11:59:42.934Z,63.30
2018-08-04T12:02:11.451Z,63.80
2018-08-04T12:04:39.903Z,62.30
2018-08-04T12:07:08.351Z,64.80
2018-08-04T12:09:36.798Z,64.70
2018-08-04T12:12:05.272Z,65.20
2018-08-04T12:14:33.739Z,66.10
2018-08-04T12:17:02.224Z,67.20
2018-08-04T12:19:30.779Z,65.30
2018-08-04T12:21:59.227Z,64.10
2018-08-04T12:24:27.724Z,63.60
2018-08-04T12:26:56.280Z,62.00
2018-08-04T12:29:24.796Z,63.30
2018-08-04T12:31:53.212Z,62.90
2018-08-04T12:34:21.655Z,64.50
2018-08-04T12:39:18.208Z,63.50
2018-08-04T12:44:14.795Z,64.10
2018-08-04T12:46:43.308Z,63.80
2018-08-04T12:49:11.751Z,63.00
2018-08-04T12:51:40.302Z,62.80
2018-08-04T12:54:09.252Z,64.20
2018-08-04T12:59:05.872Z,65.90
2018-08-04T13:01:34.336Z,65.10
2018-08-04T13:04:02.791Z,66.10
2018-08-04T13:06:31.332Z,64.50
2018-08-04T13:08:59.751Z,64.00
2018-08-04T13:11:28.295Z,60.00
2018-08-04T13:13:56.851Z,57.60
2018-08-04T13:16:25.344Z,57.50
2018-08-04T13:18:53.806Z,58.20
2018-08-04T13:21:22.348Z,56.90
2018-08-04T13:23:50.881Z,58.50
2018-08-04T13:26:19.380Z,57.90
2018-08-04T13:28:47.807Z,57.00
2018-08-04T13:33:44.462Z,57.70
2018-08-04T13:36:12.905Z,57.30
2018-08-04T13:38:41.390Z,56.50
2018-08-04T13:41:09.782Z,56.90
2018-08-04T13:43:38.204Z,56.70
2018-08-04T13:46:06.742Z,57.50
2018-08-04T13:48:35.215Z,56.10
2018-08-04T13:51:03.791Z,56.50
2018-08-04T13:53:32.244Z,56.10
2018-08-04T13:56:00.696Z,56.90
2018-08-04T13:58:29.146Z,56.70
2018-08-04T14:00:57.597Z,56.50
2018-08-04T14:03:26.084Z,55.60
2018-08-04T14:05:54.569Z,56.20
2018-08-04T14:08:22.997Z,57.10
2018-08-04T14:10:51.448Z,55.80
2018-08-04T14:13:20.019Z,56.10
2018-08-04T14:15:48.497Z,55.40
2018-08-04T14:18:17.044Z,55.90
2018-08-04T14:20:45.543Z,56.20
2018-08-04T14:23:13.982Z,56.30
2018-08-04T14:25:42.455Z,53.70
2018-08-04T14:28:10.902Z,55.80
2018-08-04T14:30:39.320Z,56.80
2018-08-04T14:33:07.848Z,58.10
2018-08-04T14:35:36.263Z,58.80
2018-08-04T14:38:04.912Z,59.30
2018-08-04T14:40:33.363Z,60.90
2018-08-04T14:43:01.797Z,59.70
2018-08-04T14:45:30.238Z,60.40
2018-08-04T14:47:58.939Z,60.70
2018-08-04T14:50:27.464Z,58.40
2018-08-04T14:52:55.871Z,59.10
2018-08-04T14:55:24.319Z,58.60
2018-08-04T14:57:52.770Z,59.20
2018-08-04T15:00:21.306Z,61.10
2018-08-04T15:02:49.954Z,60.50
2018-08-04T15:05:18.467Z,61.30
2018-08-04T15:07:47.018Z,60.10
2018-08-04T15:10:15.542Z,61.10
2018-08-04T15:12:43.999Z,59.50
2018-08-04T15:15:12.513Z,59.50
2018-08-04T15:17:41.092Z,61.70
2018-08-04T15:20:09.712Z,61.10
2018-08-04T15:22:38.180Z,61.40
2018-08-04T15:25:06.933Z,61.50
2018-08-04T15:27:35.876Z,60.60
2018-08-04T15:35:01.408Z,60.60
2018-08-04T15:37:30.168Z,60.70
2018-08-04T15:39:58.655Z,60.30
2018-08-04T15:42:27.135Z,59.50
2018-08-04T15:44:55.574Z,59.60
2018-08-04T15:47:24.114Z,60.90
2018-08-04T15:49:52.544Z,60.50
2018-08-04T15:52:20.984Z,61.50
2018-08-04T15:54:49.722Z,61.60
2018-08-04T15:57:18.191Z,61.80
2018-08-04T15:59:46.644Z,61.70
2018-08-04T16:02:15.115Z,61.90
2018-08-04T16:04:43.663Z,61.40
2018-08-04T16:07:12.090Z,62.20
2018-08-04T16:09:40.553Z,61.80
2018-08-04T16:12:08.991Z,62.30
2018-08-04T16:14:37.484Z,62.30
2018-08-04T16:19:34.027Z,62.00
2018-08-04T16:22:02.484Z,63.40
2018-08-04T16:24:31.476Z,60.40
2018-08-04T16:26:59.879Z,61.00
2018-08-04T16:29:28.339Z,61.10
2018-08-04T16:31:56.764Z,61.70
2018-08-04T16:34:25.233Z,63.10
2018-08-04T16:36:53.764Z,62.80
2018-08-04T16:39:22.235Z,63.10
2018-08-04T16:41:50.720Z,62.00
2018-08-04T16:44:19.156Z,62.60
2018-08-04T16:46:47.631Z,62.30
2018-08-04T16:49:16.103Z,63.10
2018-08-04T16:51:44.667Z,63.40
2018-08-04T16:54:13.108Z,63.80
2018-08-04T16:56:41.594Z,62.90
2018-08-04T16:59:10.051Z,63.50
2018-08-04T17:01:38.724Z,63.10
2018-08-04T17:04:07.130Z,62.50
2018-08-04T17:06:35.700Z,62.30
2018-08-04T17:11:34.373Z,62.60
2018-08-04T17:14:02.800Z,63.10
2018-08-04T17:16:31.289Z,62.00
2018-08-04T17:18:59.898Z,62.60
2018-08-04T17:21:28.395Z,61.80
2018-08-04T17:23:56.822Z,62.30
2018-08-04T17:26:25.276Z,63.50
2018-08-04T17:28:53.705Z,63.50
2018-08-04T17:31:22.403Z,64.00
2018-08-04T17:33:50.863Z,63.30
2018-08-04T17:36:19.411Z,64.00
2018-08-04T17:38:47.869Z,63.30
2018-08-04T17:41:16.313Z,63.20
2018-08-04T17:43:44.791Z,63.50
2018-08-04T17:46:13.232Z,62.80
2018-08-04T17:48:41.762Z,63.30
2018-08-04T17:51:10.264Z,62.80
2018-08-04T17:53:38.832Z,64.10
2018-08-04T17:58:35.779Z,63.80
2018-08-04T18:01:04.252Z,66.50
2018-08-04T18:03:32.766Z,67.70
2018-08-04T18:06:01.204Z,66.00
2018-08-04T18:08:29.650Z,65.60
2018-08-04T18:10:58.088Z,66.30
2018-08-04T18:15:54.832Z,67.20
2018-08-04T18:18:23.259Z,67.50
2018-08-04T18:20:51.969Z,67.90
2018-08-04T18:23:20.418Z,68.20
2018-08-04T18:25:48.874Z,69.80
2018-08-04T18:28:17.391Z,69.60
2018-08-04T18:30:45.867Z,69.20
2018-08-04T18:33:14.282Z,69.40
2018-08-04T18:38:10.852Z,70.70
2018-08-04T18:40:39.348Z,70.30
2018-08-04T18:43:07.815Z,71.30
2018-08-04T18:45:36.275Z,73.00
2018-08-04T18:48:04.709Z,72.50
2018-08-04T18:50:33.164Z,72.80
2018-08-04T18:53:01.699Z,73.30
2018-08-04T18:55:30.222Z,74.10
2018-08-04T18:57:58.667Z,73.50
2018-08-04T19:00:27.602Z,74.00
2018-08-04T19:02:56.051Z,74.60
2018-08-04T19:05:24.585Z,76.30
2018-08-04T19:07:53.726Z,76.40
2018-08-04T19:10:22.191Z,77.40
2018-08-04T19:12:50.647Z,77.30
2018-08-04T19:15:19.333Z,77.70
2018-08-04T19:17:48.007Z,77.10
2018-08-04T19:20:16.443Z,78.50
2018-08-04T19:27:41.302Z,79.20
2018-08-04T19:30:09.923Z,77.90
2018-08-04T19:32:38.403Z,78.70
2018-08-04T19:35:06.875Z,78.90
2018-08-04T19:37:35.354Z,79.00
2018-08-04T19:40:03.842Z,80.50
2018-08-04T19:42:32.289Z,80.70
2018-08-04T19:45:00.771Z,81.70
2018-08-04T19:47:29.272Z,81.70
2018-08-04T19:49:57.780Z,81.10
2018-08-04T19:52:26.237Z,81.60
2018-08-04T19:54:54.734Z,82.40
2018-08-04T19:57:23.187Z,83.00
2018-08-04T19:59:51.655Z,83.60
2018-08-04T20:02:20.132Z,83.20
2018-08-04T20:04:48.606Z,84.00
2018-08-04T20:07:17.099Z,84.40
2018-08-04T20:12:13.971Z,83.90
2018-08-04T20:14:42.491Z,84.50
2018-08-04T20:17:11.043Z,85.10
2018-08-04T20:19:39.484Z,85.10
2018-08-04T20:22:13.434Z,85.90
2018-08-04T20:24:41.916Z,85.90
2018-08-04T20:27:10.394Z,85.30
2018-08-04T20:29:38.943Z,85.90
2018-08-04T20:32:08.288Z,86.20
2018-08-04T20:34:36.732Z,86.50
2018-08-04T20:37:05.220Z,86.80
2018-08-04T20:39:33.669Z,87.40
2018-08-04T20:42:02.155Z,87.30
2018-08-04T20:44:30.621Z,87.50
2018-08-04T20:46:59.159Z,87.00
2018-08-04T20:49:27.611Z,87.40
2018-08-04T20:51:56.191Z,88.20
2018-08-04T20:54:24.729Z,90.00
2018-08-04T20:56:53.307Z,90.60
2018-08-04T20:59:21.744Z,91.70
2018-08-04T21:01:58.339Z,92.00
2018-08-04T21:04:27.416Z,92.40
2018-08-04T21:09:24.253Z,93.60
2018-08-04T21:11:54.918Z,94.10
2018-08-04T21:14:24.492Z,94.50
2018-08-04T21:16:53.899Z,94.40
2018-08-04T21:19:23.319Z,94.90
2018-08-04T21:21:51.804Z,94.30
2018-08-04T21:24:21.600Z,94.60
2018-08-04T21:26:51.298Z,93.90
2018-08-04T21:29:19.995Z,94.10
2018-08-04T21:31:48.419Z,94.30
2018-08-04T21:34:16.884Z,94.20
2018-08-04T21:36:45.417Z,94.40
2018-08-04T21:39:16.367Z,94.50
2018-08-04T21:41:45.675Z,94.70
2018-08-04T21:46:46.212Z,96.30
2018-08-04T21:49:14.664Z,96.50
2018-08-04T21:51:46.471Z,97.30
2018-08-04T21:54:19.916Z,98.20
2018-08-04T21:56:44.862Z,98.30
2018-08-04T22:01:46.735Z,97.90
2018-08-04T22:04:15.201Z,97.50
2018-08-04T22:09:22.293Z,97.50
2018-08-04T22:11:51.083Z,98.30
2018-08-04T22:14:19.614Z,99.20
2018-08-04T22:16:48.135Z,99.50
2018-08-04T22:21:44.799Z,99.90
2018-08-04T22:24:13.293Z,99.90
2018-08-04T22:29:09.875Z,99.90
2018-08-04T22:31:38.306Z,99.90
2018-08-04T22:36:34.871Z,99.90
2018-08-04T22:39:03.838Z,99.90
2018-08-04T22:41:32.315Z,99.90
2018-08-04T22:44:00.824Z,99.90
2018-08-04T22:48:57.471Z,99.90
2018-08-04T22:51:29.005Z,99.90
2018-08-04T22:53:57.583Z,99.90
2018-08-04T22:56:26.376Z,99.90
2018-08-04T22:58:54.787Z,99.90
2018-08-04T23:01:23.234Z,99.90
2018-08-04T23:03:51.818Z,99.90
2018-08-04T23:06:20.293Z,99.90
2018-08-04T23:08:48.808Z,99.90
2018-08-04T23:11:17.280Z,99.90
2018-08-04T23:13:45.703Z,99.90
2018-08-04T23:16:14.190Z,99.90
2018-08-04T23:18:42.643Z,99.90
2018-08-04T23:21:11.098Z,99.90
2018-08-04T23:23:39.567Z,99.90
2018-08-04T23:26:08.044Z,99.90
2018-08-04T23:28:36.479Z,99.90
2018-08-04T23:31:04.915Z,99.90
2018-08-04T23:33:33.357Z,99.90
2018-08-04T23:36:01.801Z,99.90
2018-08-04T23:38:30.227Z,99.90
2018-08-04T23:40:58.674Z,99.90
2018-08-04T23:43:27.141Z,99.90
2018-08-04T23:45:55.610Z,99.90
2018-08-04T23:48:24.151Z,99.90
2018-08-04T23:50:52.666Z,99.90
2018-08-04T23:53:21.108Z,99.90
2018-08-04T23:58:17.675Z,99.90
